createdAt,value
2023-02-19T00:01:35.501Z,10.25
2023-02-19T00:06:38.026Z,10.20
2023-02-19T00:11:40.445Z,10.17
2023-02-19T00:16:42.812Z,10.20
2023-02-19T00:21:45.295Z,10.15
2023-02-19T00:26:48.260Z,10.16
2023-02-19T00:31:51.036Z,10.10
2023-02-19T00:36:53.405Z,10.10
2023-02-19T00:41:55.719Z,10.15
2023-02-19T00:46:58.229Z,10.09
2023-02-19T00:52:00.628Z,10.10
2023-02-19T00:57:02.994Z,10.12
2023-02-19T01:02:05.568Z,10.15
2023-02-19T01:07:10.088Z,10.12
2023-02-19T01:12:12.637Z,10.14
2023-02-19T01:17:15.078Z,10.19
2023-02-19T01:22:17.451Z,10.17
2023-02-19T01:27:20.025Z,10.18
2023-02-19T01:32:22.560Z,10.09
2023-02-19T01:37:24.929Z,10.02
2023-02-19T01:42:27.274Z,10.01
2023-02-19T01:47:30.794Z,9.98
2023-02-19T01:52:34.165Z,9.99
2023-02-19T01:57:36.799Z,9.92
2023-02-19T02:02:39.241Z,9.62
2023-02-19T02:07:59.217Z,9.30
2023-02-19T02:13:01.596Z,9.16
2023-02-19T02:18:04.061Z,8.99
2023-02-19T02:23:06.678Z,8.82
2023-02-19T02:28:09.258Z,8.51
2023-02-19T02:33:11.733Z,8.34
2023-02-19T02:38:14.118Z,8.28
2023-02-19T02:43:16.430Z,8.22
2023-02-19T02:48:19.160Z,8.05
2023-02-19T02:53:39.228Z,7.94
2023-02-19T02:58:43.887Z,7.78
2023-02-19T03:03:46.242Z,7.71
2023-02-19T03:08:48.564Z,7.67
2023-02-19T03:14:08.403Z,7.57
2023-02-19T03:19:22.750Z,7.53
2023-02-19T03:24:42.911Z,7.54
2023-02-19T03:29:45.206Z,7.48
2023-02-19T03:34:47.550Z,7.45
2023-02-19T03:39:49.845Z,7.46
2023-02-19T03:44:52.156Z,7.40
2023-02-19T03:49:54.563Z,7.35
2023-02-19T03:54:57.253Z,7.36
2023-02-19T03:59:59.524Z,7.30
2023-02-19T04:05:01.892Z,7.28
2023-02-19T04:10:04.270Z,7.21
2023-02-19T04:15:06.668Z,7.20
2023-02-19T04:20:09.082Z,7.22
2023-02-19T04:25:11.365Z,7.22
2023-02-19T04:30:13.699Z,7.21
2023-02-19T04:35:16.026Z,7.26
2023-02-19T04:40:18.326Z,7.21
2023-02-19T04:45:20.648Z,7.28
2023-02-19T04:50:23.259Z,7.29
2023-02-19T04:55:25.676Z,7.37
2023-02-19T05:00:27.959Z,7.36
2023-02-19T05:05:30.260Z,7.42
2023-02-19T05:10:33.589Z,7.47
2023-02-19T05:15:35.986Z,7.46
2023-02-19T05:20:38.578Z,7.50
2023-02-19T05:25:40.827Z,7.49
2023-02-19T05:30:43.103Z,7.53
2023-02-19T05:35:45.368Z,7.55
2023-02-19T05:40:47.622Z,7.62
2023-02-19T05:45:49.917Z,7.63
2023-02-19T05:50:52.442Z,7.67
2023-02-19T05:55:55.033Z,7.63
2023-02-19T06:00:57.330Z,7.71
2023-02-19T06:05:59.616Z,7.67
2023-02-19T06:11:01.887Z,7.75
2023-02-19T06:16:04.190Z,7.74
2023-02-19T06:21:06.483Z,7.77
2023-02-19T06:26:08.752Z,7.78
2023-02-19T06:31:11.457Z,7.82
2023-02-19T06:36:14.006Z,7.82
2023-02-19T06:41:16.351Z,7.92
2023-02-19T06:46:18.734Z,8.02
2023-02-19T06:51:23.801Z,8.04
2023-02-19T06:56:26.128Z,8.11
2023-02-19T07:01:28.504Z,8.21
2023-02-19T07:06:30.805Z,8.24
2023-02-19T07:11:33.090Z,8.39
2023-02-19T07:16:35.384Z,8.45
2023-02-19T07:21:38.296Z,8.42
2023-02-19T07:26:40.576Z,8.43
2023-02-19T07:31:42.996Z,8.52
2023-02-19T07:36:45.547Z,8.51
2023-02-19T07:41:47.853Z,8.60
2023-02-19T07:46:50.431Z,8.55
2023-02-19T07:51:54.969Z,8.66
2023-02-19T07:56:57.271Z,8.65
2023-02-19T08:02:17.345Z,8.67
2023-02-19T08:07:19.746Z,8.81
2023-02-19T08:12:39.564Z,8.75
2023-02-19T08:17:41.926Z,8.72
2023-02-19T08:22:44.308Z,8.86
2023-02-19T08:27:46.931Z,8.99
2023-02-19T08:32:49.240Z,8.96
2023-02-19T08:37:51.553Z,9.03
2023-02-19T08:42:53.864Z,9.15
2023-02-19T08:47:56.234Z,9.00
2023-02-19T08:52:59.563Z,8.97
2023-02-19T08:58:01.865Z,9.12
2023-02-19T09:03:04.204Z,8.97
2023-02-19T09:08:06.496Z,8.91
2023-02-19T09:13:08.883Z,8.69
2023-02-19T09:18:11.246Z,8.53
2023-02-19T09:23:13.570Z,8.74
2023-02-19T09:28:16.839Z,9.06
2023-02-19T09:33:19.247Z,9.19
2023-02-19T09:38:21.635Z,9.01
2023-02-19T09:43:23.926Z,8.56
2023-02-19T09:48:26.298Z,8.38
2023-02-19T09:53:28.602Z,8.21
2023-02-19T09:58:30.930Z,8.29
2023-02-19T10:03:34.439Z,8.52
2023-02-19T10:08:37.740Z,8.56
2023-02-19T10:13:41.068Z,8.64
2023-02-19T10:18:43.428Z,9.01
2023-02-19T10:23:45.792Z,9.36
2023-02-19T10:28:48.097Z,9.83
2023-02-19T10:33:50.405Z,9.81
2023-02-19T10:38:52.792Z,9.89
2023-02-19T10:43:55.428Z,9.97
2023-02-19T10:48:57.848Z,10.23
2023-02-19T10:54:00.137Z,10.57
2023-02-19T10:59:02.394Z,10.31
2023-02-19T11:04:04.789Z,10.24
2023-02-19T11:09:07.115Z,10.36
2023-02-19T11:14:09.386Z,10.81
2023-02-19T11:19:11.782Z,10.69
2023-02-19T11:24:14.156Z,10.74
2023-02-19T11:29:16.548Z,10.78
2023-02-19T11:34:21.352Z,11.10
2023-02-19T11:39:23.987Z,11.03
2023-02-19T11:44:30.436Z,10.27
2023-02-19T11:49:32.784Z,9.52
2023-02-19T11:54:35.505Z,9.29
2023-02-19T11:59:37.918Z,9.61
2023-02-19T12:04:40.252Z,9.79
2023-02-19T12:09:42.804Z,9.87
2023-02-19T12:14:45.264Z,10.19
2023-02-19T12:19:47.984Z,10.43
2023-02-19T12:24:50.294Z,10.36
2023-02-19T12:29:52.739Z,10.42
2023-02-19T12:34:55.086Z,10.76
2023-02-19T12:39:57.649Z,10.20
2023-02-19T12:45:00.105Z,9.95
2023-02-19T12:50:02.579Z,9.38
2023-02-19T12:55:04.972Z,9.21
2023-02-19T13:00:07.557Z,9.38
2023-02-19T13:05:11.161Z,9.52
2023-02-19T13:10:13.563Z,9.72
2023-02-19T13:15:16.156Z,9.68
2023-02-19T13:20:18.534Z,9.60
2023-02-19T13:25:20.894Z,10.05
2023-02-19T13:30:24.564Z,10.51
2023-02-19T13:35:27.643Z,10.62
2023-02-19T13:40:30.131Z,10.53
2023-02-19T13:45:32.896Z,10.26
2023-02-19T13:50:35.282Z,9.86
2023-02-19T13:55:40.768Z,9.58
2023-02-19T14:00:43.907Z,9.63
2023-02-19T14:05:46.363Z,9.70
2023-02-19T14:10:48.651Z,9.64
2023-02-19T14:15:51.204Z,9.65
2023-02-19T14:20:53.742Z,9.69
2023-02-19T14:25:56.167Z,9.39
2023-02-19T14:30:58.509Z,9.43
2023-02-19T14:36:01.418Z,9.41
2023-02-19T14:41:03.758Z,9.33
2023-02-19T14:46:06.260Z,9.46
2023-02-19T14:51:08.672Z,9.44
2023-02-19T14:56:11.288Z,9.34
2023-02-19T15:01:13.822Z,9.33
2023-02-19T15:06:17.621Z,9.38
2023-02-19T15:11:20.030Z,9.37
2023-02-19T15:16:24.215Z,9.29
2023-02-19T15:21:27.992Z,9.27
2023-02-19T15:26:30.704Z,9.30
2023-02-19T15:31:33.431Z,9.17
2023-02-19T15:36:35.827Z,8.98
2023-02-19T15:41:38.269Z,8.86
2023-02-19T15:46:40.594Z,8.69
2023-02-19T15:51:43.238Z,8.54
2023-02-19T15:56:45.581Z,8.41
2023-02-19T16:01:47.927Z,8.30
2023-02-19T16:06:50.547Z,8.11
2023-02-19T16:11:52.821Z,8.04
2023-02-19T16:16:55.190Z,7.95
2023-02-19T16:21:57.680Z,7.87
2023-02-19T16:27:00.092Z,7.83
2023-02-19T16:32:02.623Z,7.71
2023-02-19T16:37:05.358Z,7.63
2023-02-19T16:42:07.933Z,7.55
2023-02-19T16:47:10.340Z,7.50
2023-02-19T16:52:12.719Z,7.41
2023-02-19T16:57:15.122Z,7.36
2023-02-19T17:02:17.713Z,7.35
2023-02-19T17:07:20.193Z,7.41
2023-02-19T17:12:22.486Z,7.49
2023-02-19T17:17:25.088Z,7.57
2023-02-19T17:22:27.693Z,7.66
2023-02-19T17:27:30.134Z,7.71
2023-02-19T17:32:32.631Z,7.75
2023-02-19T17:37:35.074Z,7.77
2023-02-19T17:42:37.446Z,7.80
2023-02-19T17:47:39.938Z,7.90
2023-02-19T17:52:42.383Z,7.86
2023-02-19T17:57:44.819Z,7.85
2023-02-19T18:02:47.168Z,7.89
2023-02-19T18:07:49.524Z,7.85
2023-02-19T18:12:52.258Z,7.85
2023-02-19T18:17:55.608Z,7.78
2023-02-19T18:22:58.680Z,7.75
2023-02-19T18:28:04.809Z,7.85
2023-02-19T18:33:07.966Z,7.75
2023-02-19T18:38:11.127Z,7.80
2023-02-19T18:43:14.529Z,7.77
2023-02-19T18:48:17.210Z,7.77
2023-02-19T18:53:20.286Z,7.81
2023-02-19T18:58:25.790Z,7.84
2023-02-19T19:03:28.823Z,7.79
2023-02-19T19:08:31.754Z,7.73
2023-02-19T19:13:36.644Z,7.70
2023-02-19T19:18:42.874Z,7.72
2023-02-19T19:23:55.178Z,7.76
2023-02-19T19:29:01.739Z,7.70
2023-02-19T19:34:05.060Z,7.65
2023-02-19T19:39:08.719Z,7.54
2023-02-19T19:44:11.855Z,7.54
2023-02-19T19:49:14.825Z,7.55
2023-02-19T19:54:18.130Z,7.50
2023-02-19T19:59:21.635Z,7.51
2023-02-19T20:04:25.152Z,7.54
2023-02-19T20:09:29.544Z,7.51
2023-02-19T20:14:36.021Z,7.47
2023-02-19T20:19:39.999Z,7.44
2023-02-19T20:24:43.017Z,7.45
2023-02-19T20:29:45.989Z,7.43
2023-02-19T20:34:48.382Z,7.47
2023-02-19T20:39:50.728Z,7.52
2023-02-19T20:44:53.198Z,7.48
2023-02-19T20:49:55.755Z,7.43
2023-02-19T20:54:58.159Z,7.39
2023-02-19T21:00:00.784Z,7.43
2023-02-19T21:05:03.149Z,7.46
2023-02-19T21:10:05.637Z,7.38
2023-02-19T21:15:08.233Z,7.45
2023-02-19T21:20:10.641Z,7.35
2023-02-19T21:25:13.148Z,7.36
2023-02-19T21:30:15.587Z,7.35
2023-02-19T21:35:17.901Z,7.35
2023-02-19T21:40:21.975Z,7.40
2023-02-19T21:45:24.327Z,7.47
2023-02-19T21:50:26.733Z,7.44
2023-02-19T21:55:29.325Z,7.44
2023-02-19T22:00:31.879Z,7.38
2023-02-19T22:05:34.308Z,7.36
2023-02-19T22:10:36.597Z,7.40
2023-02-19T22:15:39.123Z,7.43
2023-02-19T22:20:41.524Z,7.38
2023-02-19T22:25:44.098Z,7.37
2023-02-19T22:30:46.443Z,7.36
2023-02-19T22:35:48.892Z,7.31
2023-02-19T22:40:51.356Z,7.31
2023-02-19T22:45:53.673Z,7.27
2023-02-19T22:50:57.293Z,7.28
2023-02-19T22:55:59.742Z,7.36
2023-02-19T23:01:02.422Z,7.40
2023-02-19T23:06:04.848Z,7.44
2023-02-19T23:11:07.240Z,7.44
2023-02-19T23:16:09.948Z,7.35
2023-02-19T23:21:12.590Z,7.41
2023-02-19T23:26:15.369Z,7.42
2023-02-19T23:31:18.062Z,7.44
2023-02-19T23:36:20.678Z,7.40
2023-02-19T23:41:22.985Z,7.35
2023-02-19T23:46:25.386Z,7.36
2023-02-19T23:51:27.845Z,7.36
2023-02-19T23:56:30.228Z,7.39
